Search for airport 
image banner adimage banner adimage banner ad
image banner ad

08PA - Pocono Raceway Corporate

Located in Long Pond, United States

ICAO - 08PA, IATA -

Data provided by Airmate  

General information

Coordinates: N41°3'30" W75°29'59"
Elevation is 1812 feet MSL.
Magnetic variation is -12° East
View others Airports in Pennsylvania

Operational data

Special qualification required
Current time UTC:
Current local time:
Weather at : KMPO - Pocono Mountains Muni ( 13 km )
METAR: KMPO 091253Z AUTO 24005KT 10SM CLR 07/03 A3004 RMK AO2 SLP183 T00670028 $
View NOTAMs / SUP AIP / TFR affecting this airport [VIEW]
Communications frequencies: [VIEW]

Runways:

Airport contact information

Address: Long Pond United States

Satellite view of 08PA